ADDS TAF Board INFO
 
 

IDs: Format: Expanded Condensed

KORD - Chicago/O'Hare Intl, IL, US

Issued at 1951 UTC 27 Aug 2014
Time2051Z27/21Z27/22Z27/23Z28/00Z28/01Z28/02Z28/03Z28/04Z28/05Z28/06Z28/07Z28/08Z28/09Z
TypeOBSPRVLPRVLPRVLPRVLPRVLPRVLPRVLPRVLPRVLPRVLPRVLPRVLPRVL
Vis10>6>6>6>6>6>6>6>6>6>6>6>6>6
Cig250250250250250------------------
CoverOVCBKNBKNBKNBKNSCTSCTSCTSCTSCTSCTSCTSCTSCT
FltCat--VFRVFRVFRVFRVFRVFRVFRVFRVFRVFRVFRVFRVFR
Wx----------------------------
WDir3050505050505050505050505050
WSpd1110101010666666666
WGst----------------------------
R04/22
XWnd2-2-2-2-2-1-1-1-1-1-1-1-1-1
HWnd1110101010666666666
R09/27
XWnd106666444444444
HWnd68888555555555
R10/28
XWnd106666444444444
HWnd68888555555555
R14/32
XWnd1010101010666666666
HWnd-40000000000000
Raw TAF
KORD 271951Z 2720/2824 05010KT P6SM SCT080 BKN250
  FM280100 05006KT P6SM FEW080 SCT250
  FM281200 09008KT P6SM BKN060


Raw METAR
KORD 272051Z 03011KT 10SM FEW035 SCT190 OVC250 24/16 A3013 RMK AO2 SLP198 T02440161 56005

TAF Board Legend

Hazard Green Yellow Red Magenta
Visibility (sm) >5 >2.99 >0.99 <=0.99
Ceiling (100 ft) >30 >9.99 >4.99 <=4.99
Wind Speed (kt) <10 <20 <30 >=30
Wind Gust (kt) <10 <20 <30 >=30
Weather No Wx Reported Light precipitation Moderate precipitation Heavy precipitation
Flight Category VFR MVFR IFR LIFR

Page loaded:  20:58 UTC  |   01:58 PM Pacific  |   02:58 PM Mountain  |   03:58 PM Central  |   04:58 PM Eastern

 

ADVISORIES

FORECASTS

FORECASTS

OBSERVATIONS

USER TOOLS

ABOUT US